Time;durP1;ratioP1;P1;durP2;ratioP2;P2;SDS_P1;SDS_P2;PMS_P1;PMS_P2;Temp;Humidity;BMP_temperature;BMP_pressure;BME280_temperature;BME280_humidity;BME280_pressure;Samples;Min_cycle;Max_cycle;Signal;HPM_P1;HPM_P2
2021/08/11 00:00:53;;;;;;;21.02;12.43;;;11.70;99.90;;;;;;4133730;28;20096;-79
2021/08/11 00:02:54;;;;;;;24.30;13.80;;;11.70;99.90;;;;;;4150278;28;20436;-79
2021/08/11 00:04:54;;;;;;;17.02;13.10;;;11.80;99.90;;;;;;4141115;28;20037;-79
2021/08/11 00:06:55;;;;;;;21.05;13.02;;;11.80;99.90;;;;;;4134852;28;20030;-79
2021/08/11 00:08:55;;;;;;;16.42;12.88;;;11.80;99.90;;;;;;4135204;28;20042;-79
2021/08/11 00:10:56;;;;;;;17.08;11.93;;;11.80;99.90;;;;;;4136033;28;20401;-79
2021/08/11 00:12:57;;;;;;;16.60;13.02;;;11.80;99.90;;;;;;4135382;28;20030;-79
2021/08/11 00:14:57;;;;;;;25.20;15.52;;;11.80;99.90;;;;;;4132965;28;20049;-79
2021/08/11 00:16:58;;;;;;;23.52;15.55;;;11.80;99.90;;;;;;4145764;28;20049;-79
2021/08/11 00:18:59;;;;;;;22.88;14.77;;;11.80;99.90;;;;;;4144269;28;20026;-79
2021/08/11 00:20:59;;;;;;;21.85;14.18;;;11.80;99.90;;;;;;4140902;28;20498;-79
2021/08/11 00:23:00;;;;;;;23.63;16.13;;;11.80;99.90;;;;;;4134038;28;20045;-79
2021/08/11 00:25:01;;;;;;;25.95;17.00;;;11.80;99.90;;;;;;4136855;28;20040;-77
2021/08/11 00:27:01;;;;;;;25.80;15.98;;;11.80;99.90;;;;;;4143182;28;20427;-78
2021/08/11 00:29:02;;;;;;;19.17;13.35;;;11.80;99.90;;;;;;4134518;28;20367;-79
2021/08/11 00:31:03;;;;;;;16.85;13.80;;;11.80;99.90;;;;;;4134380;28;20054;-79
2021/08/11 00:33:04;;;;;;;23.33;17.30;;;11.70;99.90;;;;;;4134332;28;20030;-79
2021/08/11 00:35:05;;;;;;;23.92;16.50;;;11.70;99.90;;;;;;4136094;28;20041;-79
2021/08/11 00:37:06;;;;;;;25.70;16.70;;;11.70;99.90;;;;;;4133831;28;20093;-79
2021/08/11 00:39:06;;;;;;;27.23;18.73;;;11.70;99.90;;;;;;4139948;28;20476;-79
2021/08/11 00:41:07;;;;;;;32.03;17.65;;;11.70;99.90;;;;;;4142443;28;20128;-79
2021/08/11 00:43:11;;;;;;;24.98;16.35;;;11.70;99.90;;;;;;4135367;28;20044;-79
2021/08/11 00:45:14;;;;;;;25.65;15.75;;;11.60;99.90;;;;;;4133706;28;20066;-79
2021/08/11 00:47:15;;;;;;;24.42;17.40;;;11.60;99.90;;;;;;4143482;28;20042;-79
2021/08/11 00:49:17;;;;;;;20.48;15.50;;;11.50;99.90;;;;;;4134887;28;20062;-79
2021/08/11 00:51:17;;;;;;;23.67;15.80;;;11.40;99.90;;;;;;4136761;28;20026;-79
2021/08/11 00:53:23;;;;;;;31.70;17.52;;;11.40;99.90;;;;;;4135170;28;20719;-80
2021/08/11 00:55:24;;;;;;;28.17;19.75;;;11.40;99.90;;;;;;4138000;28;20037;-79
2021/08/11 00:57:26;;;;;;;28.70;20.58;;;11.40;99.90;;;;;;4136668;28;20068;-79
2021/08/11 00:59:28;;;;;;;25.80;19.25;;;11.30;99.90;;;;;;4135537;28;20034;-79
2021/08/11 01:01:32;;;;;;;24.35;16.75;;;11.40;99.90;;;;;;4135600;28;20038;-79
2021/08/11 01:03:34;;;;;;;21.92;14.73;;;11.40;99.90;;;;;;4137281;28;20030;-79
2021/08/11 01:05:35;;;;;;;27.30;17.00;;;11.40;99.90;;;;;;4138148;28;20049;-79
2021/08/11 01:07:37;;;;;;;23.88;17.13;;;11.30;99.90;;;;;;4144997;28;20125;-79
2021/08/11 01:09:38;;;;;;;27.88;19.25;;;11.30;99.90;;;;;;4134143;28;20034;-79
2021/08/11 01:11:42;;;;;;;27.05;18.55;;;11.30;99.90;;;;;;4139596;28;20038;-79
2021/08/11 01:13:43;;;;;;;33.70;20.73;;;11.30;99.90;;;;;;4146067;28;20061;-79
2021/08/11 01:15:47;;;;;;;31.90;20.20;;;11.20;99.90;;;;;;4146889;28;20092;-79
2021/08/11 01:17:47;;;;;;;29.27;19.00;;;11.20;99.90;;;;;;4141826;28;20691;-79
2021/08/11 01:19:48;;;;;;;27.15;17.65;;;11.20;99.90;;;;;;4132644;28;20046;-79
2021/08/11 01:22:00;;;;;;;23.27;16.63;;;11.20;99.90;;;;;;4139672;28;20083;-79
2021/08/11 01:24:09;;;;;;;21.60;15.77;;;11.20;99.90;;;;;;4136270;28;20044;-79
2021/08/11 01:26:19;;;;;;;29.63;18.85;;;11.20;99.90;;;;;;4140748;28;20367;-78
2021/08/11 01:28:28;;;;;;;24.75;17.10;;;11.10;99.90;;;;;;4137238;28;20026;-79
2021/08/11 01:30:44;;;;;;;23.85;17.05;;;11.10;99.90;;;;;;4133949;28;20046;-79
2021/08/11 01:32:48;;;;;;;29.35;19.73;;;11.20;99.90;;;;;;4137354;28;20037;-80
2021/08/11 01:34:53;;;;;;;31.90;19.17;;;11.20;99.90;;;;;;4135991;28;20653;-79
2021/08/11 01:36:58;;;;;;;29.17;19.63;;;11.20;99.90;;;;;;4132672;28;20027;-79
2021/08/11 01:39:04;;;;;;;28.25;19.50;;;11.20;99.90;;;;;;4137969;28;20042;-79
2021/08/11 01:41:06;;;;;;;28.23;19.45;;;11.20;99.90;;;;;;4143478;28;20046;-79
2021/08/11 01:43:07;;;;;;;34.35;20.92;;;11.20;99.90;;;;;;4136026;28;20584;-78
2021/08/11 01:45:18;;;;;;;32.55;21.05;;;11.20;99.90;;;;;;4146643;28;20057;-78
2021/08/11 01:47:24;;;;;;;35.95;21.13;;;11.20;99.90;;;;;;4133951;28;20522;-79
2021/08/11 01:49:25;;;;;;;35.08;23.42;;;11.30;99.90;;;;;;4137681;28;20494;-79
2021/08/11 01:51:28;;;;;;;35.70;21.80;;;11.30;99.90;;;;;;4134862;28;20050;-79
2021/08/11 01:53:30;;;;;;;37.47;22.70;;;11.30;99.90;;;;;;4133599;28;20046;-79
2021/08/11 01:55:31;;;;;;;35.75;22.00;;;11.30;99.90;;;;;;4133803;28;20053;-78
2021/08/11 01:57:32;;;;;;;36.15;20.70;;;11.30;99.90;;;;;;4133676;28;20034;-79
2021/08/11 01:59:33;;;;;;;34.53;21.23;;;11.30;99.90;;;;;;4140051;28;20414;-79
2021/08/11 02:01:37;;;;;;;28.35;19.38;;;11.30;99.90;;;;;;4136593;28;20401;-78
2021/08/11 02:03:38;;;;;;;33.33;21.80;;;11.20;99.90;;;;;;4144611;28;20125;-78
2021/08/11 02:05:39;;;;;;;31.27;21.67;;;11.20;99.90;;;;;;4133021;28;20432;-79
2021/08/11 02:07:41;;;;;;;27.77;19.13;;;11.20;99.90;;;;;;4133960;28;20034;-78
2021/08/11 02:09:42;;;;;;;29.27;18.67;;;11.20;99.90;;;;;;4136532;28;20140;-78
2021/08/11 02:11:43;;;;;;;31.52;20.70;;;11.20;99.90;;;;;;4146133;28;20135;-78
2021/08/11 02:13:44;;;;;;;28.38;19.10;;;11.10;99.90;;;;;;4143549;28;20091;-79
2021/08/11 02:15:49;;;;;;;29.20;17.38;;;11.10;99.90;;;;;;4143760;28;20034;-79
2021/08/11 02:17:50;;;;;;;34.30;22.50;;;11.10;99.90;;;;;;4132533;28;20111;-79
2021/08/11 02:19:50;;;;;;;32.88;21.25;;;11.00;99.90;;;;;;4136658;28;20183;-78
2021/08/11 02:21:51;;;;;;;33.88;20.90;;;11.00;99.90;;;;;;4140485;28;20105;-78
2021/08/11 02:23:51;;;;;;;38.67;21.23;;;11.00;99.90;;;;;;4136834;28;20109;-78
2021/08/11 02:25:55;;;;;;;28.17;18.92;;;11.00;99.90;;;;;;4133400;28;20030;-79
2021/08/11 02:28:14;;;;;;;36.65;22.85;;;11.00;99.90;;;;;;4133306;28;20073;-79
2021/08/11 02:30:19;;;;;;;40.33;23.92;;;11.00;99.90;;;;;;4134073;28;20034;-76
2021/08/11 02:32:36;;;;;;;38.83;22.27;;;11.00;99.90;;;;;;4142154;28;20100;-78
2021/08/11 02:35:12;;;;;;;40.63;22.88;;;11.00;99.90;;;;;;4138658;28;20046;-76
2021/08/11 02:37:17;;;;;;;35.30;23.05;;;11.00;99.90;;;;;;4139416;28;20638;-78
2021/08/11 02:39:28;;;;;;;33.25;21.10;;;11.00;99.90;;;;;;4134355;28;20033;-79
2021/08/11 02:41:46;;;;;;;28.70;18.25;;;11.00;99.90;;;;;;4137109;28;20149;-79
2021/08/11 02:43:49;;;;;;;28.40;18.75;;;11.00;99.90;;;;;;4133838;28;20070;-79
2021/08/11 02:45:53;;;;;;;;;;;10.90;99.90;;;;;;4133136;28;20432;-79
2021/08/11 02:47:54;;;;;;;36.72;21.52;;;10.90;99.90;;;;;;4132716;28;19909;-79
2021/08/11 02:49:55;;;;;;;34.50;20.65;;;10.90;99.90;;;;;;4140297;28;20057;-77
2021/08/11 02:51:58;;;;;;;36.13;21.42;;;10.90;99.90;;;;;;4133369;28;20045;-79
2021/08/11 02:54:07;;;;;;;38.97;21.40;;;10.90;99.90;;;;;;4136098;28;20702;-79
2021/08/11 02:56:08;;;;;;;28.65;19.25;;;10.90;99.90;;;;;;4130751;28;20493;-79
2021/08/11 02:58:09;;;;;;;34.65;20.88;;;11.00;99.90;;;;;;4132774;28;20022;-79
2021/08/11 03:00:10;;;;;;;32.25;20.88;;;11.00;99.90;;;;;;4131074;28;20027;-79
2021/08/11 03:02:11;;;;;;;35.22;22.05;;;11.00;99.90;;;;;;4135211;28;20045;-79
2021/08/11 03:04:13;;;;;;;40.60;22.67;;;11.00;99.90;;;;;;4131777;28;20026;-79
2021/08/11 03:06:13;;;;;;;32.47;20.10;;;11.00;99.90;;;;;;4136405;28;20026;-80
2021/08/11 03:08:15;;;;;;;36.60;23.20;;;11.00;99.90;;;;;;4139267;28;20036;-79
2021/08/11 03:10:16;;;;;;;36.55;22.17;;;10.90;99.90;;;;;;4132933;28;20025;-79
2021/08/11 03:12:17;;;;;;;32.50;19.70;;;11.00;99.90;;;;;;4131428;28;20027;-78
2021/08/11 03:14:18;;;;;;;38.70;23.17;;;10.90;99.90;;;;;;4134965;28;20030;-79
2021/08/11 03:16:19;;;;;;;37.25;22.83;;;10.90;99.90;;;;;;4131560;28;20506;-76
2021/08/11 03:18:20;;;;;;;38.95;23.70;;;10.90;99.90;;;;;;4131631;28;20030;-79
2021/08/11 03:20:21;;;;;;;38.63;22.25;;;10.90;99.90;;;;;;4133967;28;20042;-78
2021/08/11 03:22:22;;;;;;;39.22;22.23;;;11.00;99.90;;;;;;4130614;28;20041;-79
2021/08/11 03:24:24;;;;;;;39.70;23.50;;;11.00;99.90;;;;;;4132366;28;20045;-78
2021/08/11 03:26:25;;;;;;;41.15;21.42;;;10.90;99.90;;;;;;4135241;28;20370;-78
2021/08/11 03:28:25;;;;;;;40.13;23.80;;;10.90;99.90;;;;;;4134039;28;20030;-79
2021/08/11 03:30:26;;;;;;;39.65;22.05;;;10.90;99.90;;;;;;4131318;28;20501;-78
2021/08/11 03:32:27;;;;;;;38.63;23.98;;;10.90;99.90;;;;;;4141979;28;20516;-78
2021/08/11 03:34:28;;;;;;;48.28;27.45;;;10.90;99.90;;;;;;4132134;28;20065;-78
2021/08/11 03:36:29;;;;;;;42.10;25.73;;;11.00;99.90;;;;;;4143585;28;20037;-78
2021/08/11 03:38:29;;;;;;;41.65;25.10;;;11.00;99.90;;;;;;4130729;28;20034;-78
2021/08/11 03:40:30;;;;;;;50.47;27.08;;;11.00;99.90;;;;;;4131296;28;20088;-76
2021/08/11 03:42:30;;;;;;;46.17;26.23;;;11.10;99.90;;;;;;4133657;28;20422;-79
2021/08/11 03:44:31;;;;;;;56.88;28.98;;;11.10;99.90;;;;;;4141833;28;20038;-80
2021/08/11 03:46:32;;;;;;;57.97;29.67;;;11.00;99.90;;;;;;4144995;28;20037;-80
2021/08/11 03:48:33;;;;;;;54.67;29.83;;;11.10;99.90;;;;;;4139229;28;20121;-79
2021/08/11 03:50:33;;;;;;;62.33;30.45;;;11.10;99.90;;;;;;4140369;28;20536;-80
2021/08/11 03:52:34;;;;;;;56.10;28.88;;;11.10;99.90;;;;;;4130793;28;20490;-79
2021/08/11 03:54:35;;;;;;;53.72;27.48;;;11.10;99.90;;;;;;4136776;28;20130;-79
2021/08/11 03:56:35;;;;;;;46.25;24.45;;;11.10;99.90;;;;;;4131313;28;20359;-80
2021/08/11 03:58:36;;;;;;;41.20;23.52;;;11.10;99.90;;;;;;4137581;28;20528;-80
2021/08/11 04:00:37;;;;;;;44.35;25.85;;;11.00;99.90;;;;;;4138554;28;20030;-77
2021/08/11 04:02:38;;;;;;;38.15;22.63;;;11.00;99.90;;;;;;4145975;28;20044;-78
2021/08/11 04:04:40;;;;;;;48.42;27.83;;;10.90;99.90;;;;;;4134759;28;20571;-78
2021/08/11 04:06:40;;;;;;;59.72;29.65;;;10.90;99.90;;;;;;4144512;28;20080;-78
2021/08/11 04:08:41;;;;;;;43.35;24.77;;;10.90;99.90;;;;;;4133780;28;20034;-78
2021/08/11 04:10:45;;;;;;;41.88;23.17;;;11.00;99.90;;;;;;4139351;28;20034;-79
2021/08/11 04:12:46;;;;;;;40.63;23.27;;;11.00;99.90;;;;;;4134388;28;20049;-79
2021/08/11 04:14:46;;;;;;;54.25;26.88;;;10.90;99.90;;;;;;4132442;28;20117;-79
2021/08/11 04:16:47;;;;;;;59.40;27.67;;;11.00;99.90;;;;;;4138174;28;20129;-79
2021/08/11 04:18:47;;;;;;;53.08;28.23;;;11.00;99.90;;;;;;4138202;28;20038;-79
2021/08/11 04:20:48;;;;;;;57.05;28.10;;;11.00;99.90;;;;;;4135358;28;20409;-79
2021/08/11 04:22:49;;;;;;;63.05;31.13;;;11.00;99.90;;;;;;4139209;28;20042;-79
2021/08/11 04:24:49;;;;;;;59.00;31.40;;;11.00;99.90;;;;;;4131635;28;20057;-79
2021/08/11 04:26:50;;;;;;;60.22;31.92;;;11.10;99.90;;;;;;4131582;28;20046;-79
2021/08/11 04:28:51;;;;;;;57.03;29.42;;;11.20;99.90;;;;;;4131337;28;20038;-79
2021/08/11 04:30:52;;;;;;;48.78;25.58;;;11.20;99.90;;;;;;4130525;28;20172;-79
2021/08/11 04:32:53;;;;;;;60.95;30.60;;;11.20;99.90;;;;;;4133224;28;20034;-79
2021/08/11 04:34:53;;;;;;;50.35;27.98;;;11.20;99.90;;;;;;4134803;28;20097;-77
2021/08/11 04:36:54;;;;;;;61.53;31.90;;;11.20;99.90;;;;;;4137955;28;20433;-80
2021/08/11 04:38:54;;;;;;;56.25;29.70;;;11.30;99.90;;;;;;4146323;28;20038;-79
2021/08/11 04:40:55;;;;;;;56.20;28.55;;;11.30;99.90;;;;;;4139527;28;20044;-79
2021/08/11 04:42:56;;;;;;;62.65;32.78;;;11.30;99.90;;;;;;4145278;28;20043;-79
2021/08/11 04:44:56;;;;;;;63.20;32.08;;;11.40;99.90;;;;;;4146103;28;20034;-79
2021/08/11 04:46:58;;;;;;;54.95;27.83;;;11.40;99.90;;;;;;4140147;28;20045;-79
2021/08/11 04:48:58;;;;;;;66.13;34.50;;;11.50;99.90;;;;;;4143140;28;20038;-79
2021/08/11 04:50:59;;;;;;;74.72;35.03;;;11.50;99.90;;;;;;4142943;28;20486;-79
2021/08/11 04:53:00;;;;;;;59.80;32.08;;;11.50;99.90;;;;;;4139608;28;20072;-79
2021/08/11 04:55:03;;;;;;;52.20;30.35;;;11.50;99.90;;;;;;4136593;28;20030;-79
2021/08/11 04:57:05;;;;;;;55.10;28.33;;;11.50;99.90;;;;;;4137569;28;20046;-78
2021/08/11 04:59:05;;;;;;;60.47;29.08;;;11.50;99.90;;;;;;4137015;28;20117;-79
2021/08/11 05:01:06;;;;;;;46.28;25.55;;;11.50;99.90;;;;;;4136838;28;20030;-78
2021/08/11 05:03:07;;;;;;;57.38;31.98;;;11.60;99.90;;;;;;4132490;28;20061;-79
2021/08/11 05:05:08;;;;;;;57.17;31.77;;;11.60;99.90;;;;;;4146810;28;20061;-76
2021/08/11 05:07:10;;;;;;;49.53;28.17;;;11.60;99.90;;;;;;4138472;28;20045;-79
2021/08/11 05:09:10;;;;;;;60.70;33.40;;;11.70;99.90;;;;;;4132942;28;20112;-78
2021/08/11 05:11:11;;;;;;;62.28;34.75;;;11.70;99.90;;;;;;4141275;28;20331;-79
2021/08/11 05:13:13;;;;;;;54.25;29.98;;;11.80;99.90;;;;;;4136233;28;20043;-77
2021/08/11 05:15:14;;;;;;;59.72;34.10;;;11.80;99.90;;;;;;4144413;28;20128;-79
2021/08/11 05:17:20;;;;;;;69.30;35.78;;;11.90;99.90;;;;;;4134588;28;20034;-79
2021/08/11 05:19:21;;;;;;;64.70;33.03;;;11.90;99.90;;;;;;4139011;28;20038;-80
2021/08/11 05:21:23;;;;;;;70.82;34.10;;;11.90;99.90;;;;;;4133811;28;20038;-79
2021/08/11 05:23:24;;;;;;;70.78;39.03;;;12.00;99.90;;;;;;4135913;28;20038;-79
2021/08/11 05:25:25;;;;;;;74.57;39.10;;;12.10;99.90;;;;;;4144020;28;20033;-79
2021/08/11 05:27:27;;;;;;;68.18;36.75;;;12.20;99.90;;;;;;4147079;28;20038;-80
2021/08/11 05:29:28;;;;;;;60.33;32.70;;;12.30;99.90;;;;;;4139496;28;20061;-80
2021/08/11 05:31:29;;;;;;;67.07;35.17;;;12.40;99.90;;;;;;4136645;28;20033;-79
2021/08/11 05:33:30;;;;;;;69.28;38.22;;;12.50;99.90;;;;;;4132056;28;20045;-80
2021/08/11 05:35:30;;;;;;;74.88;39.20;;;12.50;99.90;;;;;;4135387;28;20034;-80
2021/08/11 05:37:31;;;;;;;74.97;40.00;;;12.60;99.90;;;;;;4139566;28;20061;-80
2021/08/11 05:39:31;;;;;;;79.07;40.22;;;12.70;99.90;;;;;;4149506;28;20064;-80
2021/08/11 05:41:32;;;;;;;73.32;40.53;;;12.80;99.90;;;;;;4132810;28;20544;-80
2021/08/11 05:43:33;;;;;;;78.95;40.72;;;12.90;99.90;;;;;;4138508;28;20096;-80
2021/08/11 05:45:34;;;;;;;76.85;40.97;;;13.00;99.90;;;;;;4140461;28;20038;-80
2021/08/11 05:47:35;;;;;;;65.68;38.00;;;13.10;99.90;;;;;;4132638;28;20073;-80
2021/08/11 05:49:36;;;;;;;67.80;36.35;;;13.10;99.90;;;;;;4140880;28;20441;-80
2021/08/11 05:51:37;;;;;;;75.05;40.15;;;13.10;99.90;;;;;;4133885;28;20421;-80
2021/08/11 05:53:39;;;;;;;69.95;38.72;;;13.20;99.90;;;;;;4134211;28;20052;-80
2021/08/11 05:55:39;;;;;;;73.68;39.75;;;13.30;99.90;;;;;;4141238;28;20033;-79
2021/08/11 05:57:40;;;;;;;71.78;39.80;;;13.40;99.90;;;;;;4148544;28;20119;-79
2021/08/11 05:59:41;;;;;;;81.07;41.35;;;13.50;99.90;;;;;;4141612;28;20572;-80
2021/08/11 06:01:41;;;;;;;79.88;42.05;;;13.60;99.90;;;;;;4133034;28;20038;-79
2021/08/11 06:03:42;;;;;;;77.53;42.63;;;13.70;99.90;;;;;;4137342;28;20552;-79
2021/08/11 06:05:43;;;;;;;69.03;41.15;;;13.80;99.90;;;;;;4139270;28;20093;-80
2021/08/11 06:07:43;;;;;;;82.55;44.38;;;14.00;99.90;;;;;;4150460;28;20038;-80
2021/08/11 06:09:44;;;;;;;72.88;42.53;;;14.10;99.90;;;;;;4132832;28;20031;-79
2021/08/11 06:11:45;;;;;;;64.63;40.55;;;14.20;99.90;;;;;;4139792;28;20071;-80
2021/08/11 06:13:46;;;;;;;68.00;39.88;;;14.30;99.90;;;;;;4135129;28;20058;-79
2021/08/11 06:15:46;;;;;;;67.15;40.20;;;14.30;99.90;;;;;;4132382;28;20038;-80
2021/08/11 06:17:48;;;;;;;64.07;37.38;;;14.40;99.90;;;;;;4135455;28;20383;-80
2021/08/11 06:19:49;;;;;;;64.75;35.65;;;14.40;99.90;;;;;;4134186;28;20034;-79
2021/08/11 06:21:50;;;;;;;58.83;34.80;;;14.50;99.90;;;;;;4130785;28;20665;-79
2021/08/11 06:23:51;;;;;;;49.72;34.08;;;14.60;99.90;;;;;;4134937;28;20042;-77
2021/08/11 06:25:52;;;;;;;57.92;34.40;;;14.70;99.90;;;;;;4132673;28;20034;-79
2021/08/11 06:27:52;;;;;;;50.65;34.53;;;14.70;99.90;;;;;;4133657;28;20073;-77
2021/08/11 06:29:53;;;;;;;53.13;32.45;;;14.80;99.90;;;;;;4140305;28;20034;-80
2021/08/11 06:31:54;;;;;;;55.85;32.83;;;14.80;99.90;;;;;;4133975;28;20046;-78
2021/08/11 06:33:55;;;;;;;53.67;34.75;;;14.80;99.90;;;;;;4131920;28;20093;-80
2021/08/11 06:35:55;;;;;;;49.25;32.55;;;14.80;99.90;;;;;;4132274;28;20395;-80
2021/08/11 06:37:56;;;;;;;50.97;33.35;;;13.80;99.90;;;;;;4144307;28;20045;-80
2021/08/11 06:39:56;;;;;;;42.22;31.70;;;14.90;99.90;;;;;;4135968;28;20023;-78
2021/08/11 06:41:57;;;;;;;50.13;32.75;;;15.00;99.90;;;;;;4132969;28;20121;-80
2021/08/11 06:43:58;;;;;;;44.08;31.02;;;15.00;99.90;;;;;;4139328;28;20058;-78
2021/08/11 06:45:58;;;;;;;42.80;30.23;;;15.20;99.90;;;;;;4140524;28;20031;-79
2021/08/11 06:47:59;;;;;;;44.70;30.80;;;15.20;99.90;;;;;;4134668;28;20031;-80
2021/08/11 06:49:59;;;;;;;43.05;30.48;;;15.30;99.90;;;;;;4145411;28;20473;-80
2021/08/11 06:52:00;;;;;;;44.13;32.38;;;15.40;99.90;;;;;;4135911;28;20123;-80
2021/08/11 06:54:01;;;;;;;45.45;29.98;;;15.50;99.90;;;;;;4131127;28;20042;-78
2021/08/11 06:56:01;;;;;;;42.08;28.85;;;15.60;99.90;;;;;;4133376;28;20113;-80
2021/08/11 06:58:02;;;;;;;43.40;27.40;;;15.70;99.90;;;;;;4134148;28;20054;-78
2021/08/11 07:00:04;;;;;;;40.72;26.08;;;15.90;99.90;;;;;;4140323;28;20510;-77
2021/08/11 07:02:05;;;;;;;31.08;21.40;;;16.00;99.90;;;;;;4144735;28;20026;-78
2021/08/11 07:04:06;;;;;;;39.65;23.75;;;16.20;99.90;;;;;;4137623;28;20034;-79
2021/08/11 07:06:07;;;;;;;32.13;22.02;;;16.30;99.90;;;;;;4138783;28;20567;-80
2021/08/11 07:08:07;;;;;;;25.00;18.25;;;16.50;99.90;;;;;;4135913;28;20038;-80
2021/08/11 07:10:15;;;;;;;30.05;20.05;;;17.10;99.90;;;;;;4141082;28;20397;-79
2021/08/11 07:12:16;;;;;;;28.17;20.00;;;16.70;99.90;;;;;;4131910;28;20038;-79
2021/08/11 07:14:16;;;;;;;25.00;18.73;;;16.90;99.90;;;;;;4132441;28;20072;-79
2021/08/11 07:16:17;;;;;;;27.55;20.40;;;17.10;99.90;;;;;;4130932;28;20045;-79
2021/08/11 07:18:19;;;;;;;23.52;18.92;;;17.20;99.90;;;;;;4139830;28;20134;-80
2021/08/11 07:20:21;;;;;;;18.53;15.27;;;17.20;99.90;;;;;;4134362;28;20646;-78
2021/08/11 07:22:23;;;;;;;23.65;18.05;;;17.50;99.90;;;;;;4133918;28;20285;-79
2021/08/11 07:24:24;;;;;;;22.42;18.02;;;17.50;99.90;;;;;;4132945;28;20042;-79
2021/08/11 07:26:26;;;;;;;20.98;16.63;;;17.50;99.90;;;;;;4131218;28;20089;-80
2021/08/11 07:28:26;;;;;;;22.30;15.93;;;17.60;99.90;;;;;;4134593;28;20121;-80
2021/08/11 07:30:27;;;;;;;18.00;13.55;;;17.60;99.90;;;;;;4131556;28;20513;-79
2021/08/11 07:32:28;;;;;;;20.20;16.42;;;17.70;99.90;;;;;;4130969;28;20034;-79
2021/08/11 07:34:28;;;;;;;18.58;13.80;;;17.90;99.90;;;;;;4139173;28;20034;-80
2021/08/11 07:36:29;;;;;;;17.08;14.18;;;18.10;99.90;;;;;;4132272;28;20427;-78
2021/08/11 07:38:30;;;;;;;22.10;13.82;;;18.10;99.90;;;;;;4131102;28;20034;-80
2021/08/11 07:40:31;;;;;;;18.00;14.05;;;18.20;99.90;;;;;;4131072;28;20122;-79
2021/08/11 07:42:32;;;;;;;19.77;13.43;;;18.20;99.90;;;;;;4143771;28;20124;-80
2021/08/11 07:44:33;;;;;;;20.45;15.30;;;18.30;99.90;;;;;;4134333;28;20034;-79
2021/08/11 07:46:33;;;;;;;20.90;14.38;;;18.40;99.90;;;;;;4143448;28;20501;-79
2021/08/11 07:48:35;;;;;;;17.67;13.40;;;18.40;99.90;;;;;;4131806;28;20029;-79
2021/08/11 07:50:39;;;;;;;19.63;14.48;;;18.50;99.90;;;;;;4158192;28;20061;-79
2021/08/11 07:52:40;;;;;;;18.55;14.77;;;18.60;99.90;;;;;;4133334;28;20045;-79
2021/08/11 07:54:41;;;;;;;21.27;15.15;;;18.70;99.90;;;;;;4131610;28;20482;-79
2021/08/11 07:56:42;;;;;;;17.75;15.27;;;19.00;99.90;;;;;;4135537;28;20067;-79
2021/08/11 07:58:43;;;;;;;21.38;15.32;;;19.10;99.90;;;;;;4135113;28;20097;-79
2021/08/11 08:00:44;;;;;;;23.92;15.82;;;19.40;99.90;;;;;;4134101;28;20030;-79
2021/08/11 08:02:44;;;;;;;21.85;16.38;;;19.60;99.90;;;;;;4130152;28;20121;-79
2021/08/11 08:04:45;;;;;;;26.23;16.60;;;19.90;99.90;;;;;;4130745;28;20125;-79
2021/08/11 08:06:45;;;;;;;26.23;17.60;;;20.10;99.90;;;;;;4131758;28;20030;-78
2021/08/11 08:08:45;;;;;;;21.90;16.02;;;20.00;99.90;;;;;;4141010;28;20088;-79
2021/08/11 08:10:46;;;;;;;18.58;15.52;;;20.20;99.90;;;;;;4132544;28;20042;-80
2021/08/11 08:12:48;;;;;;;20.27;16.10;;;20.50;99.90;;;;;;4133413;28;20474;-80
2021/08/11 08:14:49;;;;;;;21.80;16.42;;;20.50;99.90;;;;;;4131107;28;20043;-80
2021/08/11 08:16:49;;;;;;;17.85;15.70;;;20.50;99.90;;;;;;4143203;28;20038;-80
2021/08/11 08:18:50;;;;;;;22.75;17.50;;;20.60;99.90;;;;;;4147067;28;20386;-80
2021/08/11 08:20:55;;;;;;;20.60;17.17;;;20.60;99.90;;;;;;4142812;28;20130;-79
2021/08/11 08:22:56;;;;;;;23.75;19.20;;;20.70;99.90;;;;;;4133105;28;20367;-80
2021/08/11 08:24:57;;;;;;;21.48;17.45;;;20.70;99.90;;;;;;4134327;28;20062;-79
2021/08/11 08:26:59;;;;;;;21.92;17.35;;;21.10;99.90;;;;;;4133364;28;20041;-80
2021/08/11 08:29:00;;;;;;;22.75;16.27;;;21.50;99.90;;;;;;4134517;28;20425;-80
2021/08/11 08:31:00;;;;;;;19.20;15.95;;;21.80;99.90;;;;;;4147324;28;20049;-81
2021/08/11 08:33:01;;;;;;;19.75;16.05;;;19.00;99.90;;;;;;4141826;28;20031;-79
2021/08/11 08:35:02;;;;;;;20.65;15.45;;;22.00;99.90;;;;;;4140147;28;20041;-80
2021/08/11 08:37:02;;;;;;;19.48;15.68;;;22.00;99.90;;;;;;4135690;28;20035;-80
2021/08/11 08:39:07;;;;;;;20.50;15.15;;;;;;;;;;4140962;28;20046;-80
2021/08/11 08:41:10;;;;;;;21.50;15.48;;;22.40;99.90;;;;;;4143350;28;20128;-80
2021/08/11 08:43:11;;;;;;;18.95;15.93;;;22.60;99.90;;;;;;4135747;28;20034;-80
2021/08/11 08:45:13;;;;;;;18.55;15.07;;;22.50;99.90;;;;;;4132953;28;20096;-80
2021/08/11 08:47:16;;;;;;;16.20;13.88;;;22.40;99.90;;;;;;4134284;28;20030;-81
2021/08/11 08:49:17;;;;;;;18.20;13.45;;;22.30;99.90;;;;;;4134718;28;20049;-80
2021/08/11 08:51:21;;;;;;;16.40;12.98;;;22.40;99.90;;;;;;4136250;28;20113;-79
2021/08/11 08:53:23;;;;;;;17.33;14.23;;;22.10;99.90;;;;;;4134390;28;20441;-80
2021/08/11 08:55:24;;;;;;;22.17;15.65;;;21.80;99.90;;;;;;4142566;28;20066;-80
2021/08/11 08:57:26;;;;;;;17.63;14.18;;;21.70;99.90;;;;;;4133206;28;20038;-80
2021/08/11 08:59:27;;;;;;;17.63;13.55;;;21.60;99.90;;;;;;4134078;28;20041;-80
2021/08/11 09:01:27;;;;;;;20.88;13.70;;;21.50;99.90;;;;;;4145587;28;20539;-79
2021/08/11 09:03:28;;;;;;;20.98;15.20;;;21.60;99.90;;;;;;4143217;28;20038;-80
2021/08/11 09:05:29;;;;;;;16.15;14.52;;;21.40;99.90;;;;;;4132972;28;20041;-79
2021/08/11 09:07:29;;;;;;;18.13;14.13;;;21.20;99.90;;;;;;4134688;28;20489;-80
2021/08/11 09:09:36;;;;;;;17.65;13.18;;;21.10;99.90;;;;;;4144733;28;20093;-78
2021/08/11 09:11:39;;;;;;;15.20;12.82;;;21.40;99.90;;;;;;4141426;28;20034;-80
2021/08/11 09:13:40;;;;;;;15.68;12.00;;;21.60;99.90;;;;;;4135245;28;20030;-79
2021/08/11 09:15:43;;;;;;;14.88;13.27;;;21.80;99.90;;;;;;4142270;28;20037;-79
2021/08/11 09:17:44;;;;;;;19.27;13.95;;;21.80;99.90;;;;;;4142801;28;20129;-80
2021/08/11 09:19:47;;;;;;;17.77;12.75;;;21.50;99.90;;;;;;4155907;28;20034;-79
2021/08/11 09:22:00;;;;;;;18.10;12.40;;;21.50;99.90;;;;;;4135348;28;20114;-80
2021/08/11 09:24:01;;;;;;;15.77;14.02;;;21.80;99.90;;;;;;4133179;28;20039;-81
2021/08/11 09:26:04;;;;;;;14.98;13.15;;;22.00;99.90;;;;;;4133106;28;20134;-79
2021/08/11 09:28:17;;;;;;;17.00;13.95;;;21.80;99.90;;;;;;4132510;28;20494;-80
2021/08/11 09:30:20;;;;;;;17.33;12.85;;;21.90;99.90;;;;;;4133415;28;20029;-80
2021/08/11 09:32:21;;;;;;;18.80;12.38;;;21.90;99.90;;;;;;4134160;28;20478;-80
2021/08/11 09:34:21;;;;;;;15.88;12.73;;;22.60;99.90;;;;;;4134313;28;20092;-80
2021/08/11 09:36:22;;;;;;;16.60;12.20;;;22.00;99.90;;;;;;4135772;28;20037;-80
2021/08/11 09:38:23;;;;;;;14.55;11.00;;;22.60;99.90;;;;;;4133384;28;20049;-80
2021/08/11 09:40:28;;;;;;;14.48;10.88;;;22.80;99.90;;;;;;4138565;28;20030;-78
2021/08/11 09:42:29;;;;;;;12.15;9.48;;;23.10;99.90;;;;;;4133528;28;20048;-80
2021/08/11 09:44:30;;;;;;;13.35;10.55;;;23.30;99.90;;;;;;4136655;28;20363;-81
2021/08/11 09:46:31;;;;;;;11.95;8.93;;;23.50;99.90;;;;;;4132477;28;20037;-80
2021/08/11 09:48:42;;;;;;;11.55;8.27;;;23.70;99.90;;;;;;4131837;28;20106;-80
2021/08/11 09:50:53;;;;;;;10.70;8.40;;;23.40;99.90;;;;;;4145809;28;20034;-81
2021/08/11 09:52:54;;;;;;;10.82;8.57;;;23.60;99.90;;;;;;4152441;28;20117;-81
2021/08/11 09:54:59;;;;;;;9.60;8.60;;;23.60;99.90;;;;;;4143083;28;20046;-79
2021/08/11 09:57:00;;;;;;;10.70;9.15;;;23.80;99.90;;;;;;4149511;28;20037;-80
2021/08/11 09:59:02;;;;;;;11.82;9.13;;;24.20;99.90;;;;;;4140015;28;20034;-80
2021/08/11 10:01:05;;;;;;;10.02;8.07;;;25.20;99.90;;;;;;4138602;28;20030;-80
2021/08/11 10:03:06;;;;;;;9.10;7.93;;;24.40;99.90;;;;;;4154778;28;20037;-81
2021/08/11 10:05:12;;;;;;;9.18;7.32;;;25.30;99.90;;;;;;4133319;28;20041;-80
2021/08/11 10:07:13;;;;;;;13.43;9.02;;;24.90;99.90;;;;;;4134135;28;20058;-79
2021/08/11 10:09:21;;;;;;;8.55;7.65;;;25.50;99.90;;;;;;4138439;28;20033;-80
2021/08/11 10:11:36;;;;;;;10.68;7.07;;;25.40;99.90;;;;;;4134444;28;20065;-80
2021/08/11 10:13:40;;;;;;;9.98;5.82;;;25.60;99.90;;;;;;4136489;28;20437;-80
2021/08/11 10:15:41;;;;;;;6.85;5.78;;;25.90;99.90;;;;;;4139768;28;20034;-80
2021/08/11 10:17:44;;;;;;;5.70;4.28;;;26.40;99.90;;;;;;4138985;28;20489;-80
2021/08/11 10:19:47;;;;;;;6.82;5.72;;;26.10;99.90;;;;;;4133103;28;20030;-80